Time;durP1;ratioP1;P1;durP2;ratioP2;P2;SDS_P1;SDS_P2;PMS_P1;PMS_P2;Temp;Humidity;BMP_temperature;BMP_pressure;BME280_temperature;BME280_humidity;BME280_pressure;Samples;Min_cycle;Max_cycle;Signal;HPM_P1;HPM_P2
2022/07/01 00:00:37;;;;;;;1.30;1.30;;;;;;;;;;5048969;28;20223;-73
2022/07/01 00:03:04;;;;;;;1.03;1.03;;;;;;;;;;5040197;28;20243;-72
2022/07/01 00:05:30;;;;;;;1.07;1.07;;;;;;;;;;5030154;28;20277;-72
2022/07/01 00:07:55;;;;;;;0.90;0.90;;;;;;;;;;5018445;28;20224;-72
2022/07/01 00:10:21;;;;;;;1.10;1.10;;;;;;;;;;5036107;28;20227;-73
2022/07/01 00:12:47;;;;;;;1.03;1.03;;;;;;;;;;5029351;28;20318;-72
2022/07/01 00:15:13;;;;;;;1.20;1.20;;;;;;;;;;5027582;28;20223;-72
2022/07/01 00:17:39;;;;;;;1.10;1.10;;;;;;;;;;5031514;28;20222;-72
2022/07/01 00:20:06;;;;;;;1.20;1.20;;;;;;;;;;5009003;28;20695;-72
2022/07/01 00:22:32;;;;;;;1.10;1.10;;;;;;;;;;5033078;28;20217;-73
2022/07/01 00:24:58;;;;;;;1.27;1.27;;;;;;;;;;5031600;28;20680;-72
2022/07/01 00:27:24;;;;;;;1.30;1.30;;;;;;;;;;5018110;28;20230;-71
2022/07/01 00:29:50;;;;;;;1.10;1.10;;;;;;;;;;5045380;28;20226;-72
2022/07/01 00:32:16;;;;;;;1.00;1.00;;;;;;;;;;5043017;28;20244;-72
2022/07/01 00:34:42;;;;;;;1.20;1.20;;;;;;;;;;5043145;28;20242;-72
2022/07/01 00:37:08;;;;;;;1.50;1.50;;;;;;;;;;5053758;28;20230;-72
2022/07/01 00:39:35;;;;;;;1.00;1.00;;;;;;;;;;5040615;28;20227;-72
2022/07/01 00:42:01;;;;;;;1.27;1.27;;;;;;;;;;5051648;28;20687;-72
2022/07/01 00:44:27;;;;;;;1.00;1.00;;;;;;;;;;5032828;28;20234;-72
2022/07/01 00:46:53;;;;;;;1.10;1.10;;;;;;;;;;5036083;28;20227;-72
2022/07/01 00:49:19;;;;;;;1.10;1.10;;;;;;;;;;5019336;28;20226;-72
2022/07/01 00:51:45;;;;;;;1.10;1.10;;;;;;;;;;5040473;28;20225;-73
2022/07/01 00:54:11;;;;;;;1.10;1.10;;;;;;;;;;5055859;28;20223;-72
2022/07/01 00:56:37;;;;;;;1.20;1.20;;;;;;;;;;5058556;28;20795;-73
2022/07/01 00:59:03;;;;;;;1.10;1.10;;;;;;;;;;5056249;28;20219;-72
2022/07/01 01:01:29;;;;;;;1.00;1.00;;;;;;;;;;5043465;28;20227;-72
2022/07/01 01:03:55;;;;;;;1.00;1.00;;;;;;;;;;5048012;28;21241;-72
2022/07/01 01:06:21;;;;;;;1.10;1.10;;;;;;;;;;5052967;28;20223;-72
2022/07/01 01:08:48;;;;;;;1.13;1.13;;;;;;;;;;5037017;28;20245;-72
2022/07/01 01:11:15;;;;;;;1.10;1.10;;;;;;;;;;5034676;28;20231;-72
2022/07/01 01:13:41;;;;;;;1.10;1.10;;;;;;;;;;5053123;28;20232;-72
2022/07/01 01:16:07;;;;;;;1.00;1.00;;;;;;;;;;5025103;28;20240;-72
2022/07/01 01:18:33;;;;;;;1.00;1.00;;;;;;;;;;5027381;28;20231;-73
2022/07/01 01:20:59;;;;;;;1.10;1.10;;;;;;;;;;5027438;28;20714;-72
2022/07/01 01:23:25;;;;;;;1.30;1.30;;;;;;;;;;5053788;28;20219;-72
2022/07/01 01:25:51;;;;;;;1.40;1.40;;;;;;;;;;5019395;28;20238;-72
2022/07/01 01:28:17;;;;;;;1.30;1.30;;;;;;;;;;5041734;28;20223;-73
2022/07/01 01:30:43;;;;;;;1.40;1.40;;;;;;;;;;5042794;28;20230;-73
2022/07/01 01:33:11;;;;;;;1.30;1.30;;;;;;;;;;5033162;28;20223;-73
2022/07/01 01:35:37;;;;;;;1.40;1.40;;;;;;;;;;5040918;28;20302;-73
2022/07/01 01:38:03;;;;;;;1.40;1.40;;;;;;;;;;5050661;28;20220;-72
2022/07/01 01:40:29;;;;;;;1.00;1.00;;;;;;;;;;5040613;28;20222;-73
2022/07/01 01:42:55;;;;;;;0.90;0.90;;;;;;;;;;5029261;28;20254;-72
2022/07/01 01:45:21;;;;;;;0.97;0.97;;;;;;;;;;5029429;28;20223;-73
2022/07/01 01:47:47;;;;;;;1.10;1.10;;;;;;;;;;5044943;28;20335;-72
2022/07/01 01:50:14;;;;;;;1.20;1.20;;;;;;;;;;5029517;28;20685;-72
2022/07/01 01:52:42;;;;;;;1.30;1.30;;;;;;;;;;5018173;28;20234;-72
2022/07/01 01:55:09;;;;;;;1.20;1.20;;;;;;;;;;5032894;28;20771;-72
2022/07/01 01:57:34;;;;;;;1.10;1.10;;;;;;;;;;5017540;28;20216;-73
2022/07/01 02:00:00;;;;;;;1.10;1.10;;;;;;;;;;5053777;28;21681;-73
2022/07/01 02:02:26;;;;;;;1.17;1.17;;;;;;;;;;5041978;28;20235;-72
2022/07/01 02:04:52;;;;;;;1.00;1.00;;;;;;;;;;5036528;28;20232;-72
2022/07/01 02:07:18;;;;;;;1.10;1.10;;;;;;;;;;5028692;28;20219;-72
2022/07/01 02:09:44;;;;;;;1.20;1.20;;;;;;;;;;5043687;28;20207;-71
2022/07/01 02:12:10;;;;;;;1.00;1.00;;;;;;;;;;5042629;28;20234;-72
2022/07/01 02:14:36;;;;;;;1.17;1.17;;;;;;;;;;5028220;28;20285;-72
2022/07/01 02:17:02;;;;;;;1.00;1.00;;;;;;;;;;5028255;28;20227;-73
2022/07/01 02:19:28;;;;;;;1.20;1.20;;;;;;;;;;5045451;28;20223;-72
2022/07/01 02:21:54;;;;;;;1.00;1.00;;;;;;;;;;5051141;28;20646;-73
2022/07/01 02:24:21;;;;;;;1.00;1.00;;;;;;;;;;5050650;28;21690;-72
2022/07/01 02:26:47;;;;;;;1.00;1.00;;;;;;;;;;5049885;28;20701;-72
2022/07/01 02:29:13;;;;;;;1.03;1.03;;;;;;;;;;5046405;28;20229;-71
2022/07/01 02:31:39;;;;;;;1.40;1.40;;;;;;;;;;5049871;28;20257;-73
2022/07/01 02:34:05;;;;;;;1.00;1.00;;;;;;;;;;5058078;28;20226;-72
2022/07/01 02:36:31;;;;;;;1.20;1.20;;;;;;;;;;5047106;28;20651;-72
2022/07/01 02:38:57;;;;;;;1.20;1.20;;;;;;;;;;5037466;28;20227;-72
2022/07/01 02:41:22;;;;;;;0.90;0.90;;;;;;;;;;5028736;28;20219;-72
2022/07/01 02:43:48;;;;;;;1.20;1.20;;;;;;;;;;5054439;27;20253;-72
2022/07/01 02:46:14;;;;;;;1.10;1.10;;;;;;;;;;5044220;27;20207;-71
2022/07/01 02:48:40;;;;;;;1.10;1.10;;;;;;;;;;5054387;28;20220;-72
2022/07/01 02:51:06;;;;;;;1.10;1.10;;;;;;;;;;5036533;28;20228;-72
2022/07/01 02:53:32;;;;;;;1.13;1.13;;;;;;;;;;5040400;28;20241;-72
2022/07/01 02:55:58;;;;;;;1.33;1.33;;;;;;;;;;5029194;28;20225;-71
2022/07/01 02:58:25;;;;;;;1.10;1.10;;;;;;;;;;5053561;28;20219;-72
2022/07/01 03:00:52;;;;;;;1.00;1.00;;;;;;;;;;5038904;28;20212;-73
2022/07/01 03:03:19;;;;;;;0.90;0.90;;;;;;;;;;5056091;28;20235;-72
2022/07/01 03:05:46;;;;;;;1.10;1.10;;;;;;;;;;5031628;28;20262;-72
2022/07/01 03:08:12;;;;;;;1.20;1.20;;;;;;;;;;5049465;28;20220;-73
2022/07/01 03:10:38;;;;;;;0.97;0.97;;;;;;;;;;5055308;28;20248;-72
2022/07/01 03:13:04;;;;;;;1.10;1.10;;;;;;;;;;5050480;28;20222;-73
2022/07/01 03:15:30;;;;;;;1.10;1.10;;;;;;;;;;5040894;28;20244;-72
2022/07/01 03:17:56;;;;;;;1.00;1.00;;;;;;;;;;5057816;28;20226;-73
2022/07/01 03:20:22;;;;;;;0.90;0.90;;;;;;;;;;5019577;28;20423;-72
2022/07/01 03:22:48;;;;;;;1.00;1.00;;;;;;;;;;5031137;28;20212;-73
2022/07/01 03:25:14;;;;;;;1.17;1.17;;;;;;;;;;5049546;28;20238;-71
2022/07/01 03:27:44;;;;;;;1.13;1.13;;;;;;;;;;5043188;28;20234;-72
2022/07/01 03:30:11;;;;;;;1.20;1.20;;;;;;;;;;5018048;28;20349;-72
2022/07/01 03:32:37;;;;;;;1.00;1.00;;;;;;;;;;5044762;28;20691;-72
2022/07/01 03:35:35;;;;;;;1.17;1.17;;;;;;;;;;5036468;28;20227;-72
2022/07/01 03:37:49;;;;;;;1.10;1.10;;;;;;;;;;5054372;28;20215;-72
2022/07/01 03:40:15;;;;;;;0.93;0.93;;;;;;;;;;5043811;28;20207;-73
2022/07/01 03:42:41;;;;;;;1.47;1.47;;;;;;;;;;5046421;28;20214;-72
2022/07/01 03:45:07;;;;;;;1.00;1.00;;;;;;;;;;5037133;28;20261;-71
2022/07/01 03:47:33;;;;;;;1.03;1.03;;;;;;;;;;5045931;28;20223;-72
2022/07/01 03:49:59;;;;;;;1.23;1.23;;;;;;;;;;5051587;28;20229;-73
2022/07/01 03:52:25;;;;;;;1.30;1.30;;;;;;;;;;5052611;28;20223;-72
2022/07/01 03:54:51;;;;;;;1.30;1.30;;;;;;;;;;5036162;28;20232;-72
2022/07/01 03:57:17;;;;;;;1.10;1.10;;;;;;;;;;5038266;28;20222;-72
2022/07/01 03:59:43;;;;;;;1.10;1.10;;;;;;;;;;5029761;28;20247;-70
2022/07/01 04:02:09;;;;;;;1.00;1.00;;;;;;;;;;5033361;28;20204;-71
2022/07/01 04:04:35;;;;;;;1.03;1.03;;;;;;;;;;5049089;28;20212;-72
2022/07/01 04:07:02;;;;;;;1.10;1.10;;;;;;;;;;5031055;28;20224;-73
2022/07/01 04:09:28;;;;;;;1.10;1.10;;;;;;;;;;5029280;28;20223;-71
2022/07/01 04:11:54;;;;;;;1.20;1.20;;;;;;;;;;5025535;28;20787;-71
2022/07/01 04:14:20;;;;;;;1.30;1.30;;;;;;;;;;5046634;28;20272;-72
2022/07/01 04:16:46;;;;;;;1.20;1.20;;;;;;;;;;5040075;28;20220;-73
2022/07/01 04:19:13;;;;;;;1.40;1.40;;;;;;;;;;5038652;28;20224;-73
2022/07/01 04:24:24;;;;;;;1.40;1.40;;;;;;;;;;5051817;28;20255;-71
2022/07/01 04:26:50;;;;;;;1.40;1.40;;;;;;;;;;5039040;28;20219;-72
2022/07/01 04:29:16;;;;;;;1.00;1.00;;;;;;;;;;5037611;28;20214;-72
2022/07/01 04:31:42;;;;;;;1.20;1.20;;;;;;;;;;5052166;28;20677;-72
2022/07/01 04:34:08;;;;;;;1.23;1.23;;;;;;;;;;5040624;28;20236;-72
2022/07/01 04:36:34;;;;;;;1.00;1.00;;;;;;;;;;5033704;28;20221;-71
2022/07/01 04:39:00;;;;;;;1.10;1.10;;;;;;;;;;5049127;28;20223;-72
2022/07/01 04:44:11;;;;;;;0.93;0.93;;;;;;;;;;5044651;28;20329;-72
2022/07/01 04:46:37;;;;;;;1.03;1.03;;;;;;;;;;5051113;28;20676;-73
2022/07/01 04:49:03;;;;;;;1.10;1.10;;;;;;;;;;5034496;28;20240;-72
2022/07/01 04:51:29;;;;;;;1.00;1.00;;;;;;;;;;5031355;28;20342;-73
2022/07/01 04:53:55;;;;;;;0.90;0.90;;;;;;;;;;5035481;28;20249;-72
2022/07/01 04:56:21;;;;;;;1.00;1.00;;;;;;;;;;5024818;28;20311;-73
2022/07/01 04:58:47;;;;;;;1.10;1.10;;;;;;;;;;5046320;28;20799;-71
2022/07/01 05:01:13;;;;;;;1.97;1.90;;;;;;;;;;5046581;28;20229;-72
2022/07/01 05:03:39;;;;;;;2.33;2.23;;;;;;;;;;5032793;28;20254;-73
2022/07/01 05:06:05;;;;;;;1.07;1.07;;;;;;;;;;5051950;28;20696;-73
2022/07/01 05:08:31;;;;;;;1.00;1.00;;;;;;;;;;5029585;28;20278;-72
2022/07/01 05:10:57;;;;;;;0.90;0.90;;;;;;;;;;5055200;28;20239;-72
2022/07/01 05:13:23;;;;;;;1.10;1.10;;;;;;;;;;5034766;28;20232;-73
2022/07/01 05:15:49;;;;;;;1.00;1.00;;;;;;;;;;5041383;28;20230;-72
2022/07/01 05:23:45;;;;;;;1.20;1.20;;;;;;;;;;5037662;28;20773;-72
2022/07/01 05:26:16;;;;;;;0.90;0.90;;;;;;;;;;5038023;28;20952;-72
2022/07/01 05:28:42;;;;;;;1.10;1.10;;;;;;;;;;5039148;28;20254;-73
2022/07/01 05:31:07;;;;;;;1.00;1.00;;;;;;;;;;5052676;28;20228;-73
2022/07/01 05:33:33;;;;;;;1.10;1.10;;;;;;;;;;5047098;28;20711;-72
2022/07/01 05:36:01;;;;;;;1.00;1.00;;;;;;;;;;5048694;28;20834;-72
2022/07/01 05:38:27;;;;;;;0.90;0.90;;;;;;;;;;5047895;28;20219;-73
2022/07/01 05:40:53;;;;;;;0.80;0.80;;;;;;;;;;5054583;28;20253;-72
2022/07/01 05:43:19;;;;;;;0.83;0.83;;;;;;;;;;5052256;28;20226;-73
2022/07/01 05:45:45;;;;;;;0.90;0.90;;;;;;;;;;5054520;28;20243;-72
2022/07/01 05:48:11;;;;;;;1.00;1.00;;;;;;;;;;5047665;28;20634;-73
2022/07/01 05:50:37;;;;;;;1.10;1.10;;;;;;;;;;5058417;28;20214;-73
2022/07/01 05:53:03;;;;;;;0.90;0.90;;;;;;;;;;5051276;28;20284;-73
2022/07/01 05:55:29;;;;;;;0.90;0.90;;;;;;;;;;5017116;28;20879;-72
2022/07/01 05:57:55;;;;;;;0.80;0.80;;;;;;;;;;5034085;28;20208;-72
2022/07/01 06:00:21;;;;;;;0.83;0.83;;;;;;;;;;5026653;28;21147;-72
2022/07/01 06:02:47;;;;;;;1.00;1.00;;;;;;;;;;5050811;28;20341;-72
2022/07/01 06:05:14;;;;;;;1.10;1.10;;;;;;;;;;5028475;28;20746;-73
2022/07/01 06:07:40;;;;;;;0.97;0.97;;;;;;;;;;5029968;28;20228;-72
2022/07/01 06:10:06;;;;;;;;;;;;;;;;;;5056265;28;20040;-69
2022/07/01 06:12:32;;;;;;;;;;;;;;;;;;5046383;28;19956;-68
2022/07/01 06:14:58;;;;;;;;;;;;;;;;;;5049458;28;19931;-68
2022/07/01 06:17:24;;;;;;;;;;;;;;;;;;5043890;28;19942;-68
2022/07/01 06:19:50;;;;;;;;;;;;;;;;;;5050681;28;19963;-68
2022/07/01 06:22:18;;;;;;;;;;;;;;;;;;5056248;28;20401;-68
2022/07/01 06:24:44;;;;;;;;;;;;;;;;;;5053460;28;19943;-68
2022/07/01 06:27:10;;;;;;;;;;;;;;;;;;5057301;28;20011;-68
2022/07/01 06:29:36;;;;;;;;;;;;;;;;;;5050740;28;20003;-67
2022/07/01 06:32:02;;;;;;;;;;;;;;;;;;5053874;28;19971;-68
2022/07/01 06:34:28;;;;;;;;;;;;;;;;;;5052872;28;20022;-68
2022/07/01 06:36:55;;;;;;;;;;;;;;;;;;5052015;28;20335;-68
2022/07/01 06:39:21;;;;;;;;;;;;;;;;;;5058856;28;19917;-67
2022/07/01 06:41:47;;;;;;;;;;;;;;;;;;5040528;28;20020;-67
2022/07/01 06:44:13;;;;;;;;;;;;;;;;;;5051198;28;19919;-68
2022/07/01 06:46:39;;;;;;;;;;;;;;;;;;5060415;28;20263;-67
2022/07/01 06:49:05;;;;;;;;;;;;;;;;;;5061578;28;19931;-67
2022/07/01 06:51:31;;;;;;;;;;;;;;;;;;5061156;28;19916;-68
2022/07/01 06:53:57;;;;;;;;;;;;;;;;;;5056765;28;20293;-67
2022/07/01 06:56:22;;;;;;;;;;;;;;;;;;5049078;28;20065;-66
2022/07/01 06:58:48;;;;;;;;;;;;;;;;;;5050890;28;20304;-68
2022/07/01 07:01:14;;;;;;;;;;;;;;;;;;5040712;28;19927;-68
2022/07/01 07:03:40;;;;;;;;;;;;;;;;;;5025817;28;19921;-68
2022/07/01 07:06:06;;;;;;;;;;;;;;;;;;5013319;28;21389;-68
2022/07/01 07:08:32;;;;;;;;;;;;;;;;;;5030723;28;19927;-68
2022/07/01 07:10:58;;;;;;;;;;;;;;;;;;5034879;28;19921;-68
2022/07/01 07:13:23;;;;;;;;;;;;;;;;;;5028813;28;19955;-67
2022/07/01 07:15:49;;;;;;;;;;;;;;;;;;5042383;28;19912;-69
2022/07/01 07:18:15;;;;;;;;;;;;;;;;;;5038098;28;19924;-68
2022/07/01 07:20:41;;;;;;;;;;;;;;;;;;5036122;28;22744;-68
2022/07/01 07:23:07;;;;;;;;;;;;;;;;;;5044778;28;20397;-68
2022/07/01 07:25:33;;;;;;;;;;;;;;;;;;5035682;28;19920;-68
2022/07/01 07:27:59;;;;;;;;;;;;;;;;;;5038130;28;19918;-68
2022/07/01 07:30:25;;;;;;;;;;;;;;;;;;5037456;28;19988;-68
2022/07/01 07:32:51;;;;;;;;;;;;;;;;;;5042869;28;19912;-68
2022/07/01 07:35:16;;;;;;;;;;;;;;;;;;5028423;28;19932;-69
2022/07/01 07:37:42;;;;;;;;;;;;;;;;;;5025649;28;19921;-68
2022/07/01 07:40:12;;;;;;;;;;;;;;;;;;5014762;28;19913;-68
2022/07/01 07:42:38;;;;;;;;;;;;;;;;;;5032673;28;20008;-69
2022/07/01 07:45:06;;;;;;;;;;;;;;;;;;5034327;28;19927;-68
2022/07/01 07:47:32;;;;;;;;;;;;;;;;;;5037949;28;19937;-69
2022/07/01 07:49:58;;;;;;;;;;;;;;;;;;5042484;28;20472;-68
2022/07/01 07:52:23;;;;;;;;;;;;;;;;;;5037862;28;19924;-68
2022/07/01 07:54:49;;;;;;;;;;;;;;;;;;5037585;28;19924;-69
2022/07/01 07:57:15;;;;;;;;;;;;;;;;;;5040375;28;19920;-68
2022/07/01 07:59:41;;;;;;;;;;;;;;;;;;5034930;28;19974;-68
2022/07/01 08:02:07;;;;;;;;;;;;;;;;;;5027495;28;19923;-67
2022/07/01 08:04:33;;;;;;;;;;;;;;;;;;5013940;28;19920;-67
2022/07/01 08:07:01;;;;;;;;;;;;;;;;;;5019702;28;20396;-68
2022/07/01 08:09:27;;;;;;;;;;;;;;;;;;5029462;28;19916;-68
2022/07/01 08:11:58;;;;;;;;;;;;;;;;;;5026438;28;20354;-68
2022/07/01 08:14:24;;;;;;;;;;;;;;;;;;5029569;28;20016;-68
2022/07/01 08:16:51;;;;;;;;;;;;;;;;;;5028259;28;20267;-68
2022/07/01 08:19:17;;;;;;;;;;;;;;;;;;5030981;28;19917;-69
2022/07/01 08:21:43;;;;;;;;;;;;;;;;;;5019882;28;20577;-68
2022/07/01 08:24:09;;;;;;;;;;;;;;;;;;5038454;28;19928;-68
2022/07/01 08:26:34;;;;;;;;;;;;;;;;;;5034301;28;19916;-67
2022/07/01 08:29:00;;;;;;;;;;;;;;;;;;5028057;28;20019;-69
2022/07/01 08:31:26;;;;;;;;;;;;;;;;;;5028471;28;19921;-68
2022/07/01 08:33:52;;;;;;;;;;;;;;;;;;5031639;28;19917;-69
2022/07/01 08:36:18;;;;;;;;;;;;;;;;;;5035165;28;19979;-69
2022/07/01 08:38:44;;;;;;;;;;;;;;;;;;5038265;28;19920;-69
2022/07/01 08:41:10;;;;;;;;;;;;;;;;;;5037432;28;19956;-68
2022/07/01 08:43:35;;;;;;;;;;;;;;;;;;5024963;28;19928;-68
2022/07/01 08:46:01;;;;;;;;;;;;;;;;;;5027228;28;20249;-68
2022/07/01 08:48:27;;;;;;;;;;;;;;;;;;5037306;28;19940;-68
2022/07/01 08:50:53;;;;;;;;;;;;;;;;;;5038262;28;19912;-70
2022/07/01 08:53:19;;;;;;;;;;;;;;;;;;5021334;28;19927;-68
2022/07/01 08:58:30;;;;;;;;;;;;;;;;;;5026853;28;19972;-68
2022/07/01 09:00:56;;;;;;;;;;;;;;;;;;5027048;28;19920;-68
2022/07/01 09:03:22;;;;;;;;;;;;;;;;;;5037976;28;19953;-69
2022/07/01 09:05:47;;;;;;;;;;;;;;;;;;5043514;28;19923;-68
2022/07/01 09:08:13;;;;;;;;;;;;;;;;;;5046710;28;21524;-69
2022/07/01 09:10:39;;;;;;;;;;;;;;;;;;5025071;28;20054;-68
2022/07/01 09:13:06;;;;;;;;;;;;;;;;;;5046975;28;19918;-69
2022/07/01 09:15:32;;;;;;;;;;;;;;;;;;5039496;28;19925;-69
2022/07/01 09:17:58;;;;;;;;;;;;;;;;;;5032161;28;19978;-68
2022/07/01 09:20:23;;;;;;;;;;;;;;;;;;5041148;28;19916;-69
2022/07/01 09:22:49;;;;;;;;;;;;;;;;;;5038414;28;19916;-69
2022/07/01 09:25:15;;;;;;;;;;;;;;;;;;5040737;28;19955;-69
2022/07/01 09:27:41;;;;;;;;;;;;;;;;;;5036632;28;19920;-68
2022/07/01 09:30:07;;;;;;;;;;;;;;;;;;5048726;28;19916;-69
2022/07/01 09:32:33;;;;;;;;;;;;;;;;;;5043997;28;19942;-68
2022/07/01 09:34:59;;;;;;;;;;;;;;;;;;5046234;28;19921;-68
2022/07/01 09:37:25;;;;;;;;;;;;;;;;;;5050243;28;19962;-70
2022/07/01 09:39:50;;;;;;;;;;;;;;;;;;5041746;28;20395;-69
2022/07/01 09:42:19;;;;;;;;;;;;;;;;;;5041791;28;20396;-69
2022/07/01 09:44:45;;;;;;;;;;;;;;;;;;5047424;28;19966;-69
2022/07/01 09:47:11;;;;;;;;;;;;;;;;;;5046925;28;20374;-68
2022/07/01 09:49:37;;;;;;;;;;;;;;;;;;5050174;28;20005;-70
2022/07/01 09:52:03;;;;;;;;;;;;;;;;;;5055644;28;19917;-68
2022/07/01 09:54:29;;;;;;;;;;;;;;;;;;5041569;28;19920;-69
2022/07/01 09:56:54;;;;;;;;;;;;;;;;;;5051897;28;20461;-69
2022/07/01 09:59:20;;;;;;;;;;;;;;;;;;5049796;28;19923;-69
2022/07/01 10:01:46;;;;;;;;;;;;;;;;;;5043352;28;19943;-69
2022/07/01 10:04:12;;;;;;;;;;;;;;;;;;5049501;28;19963;-69
2022/07/01 10:06:38;;;;;;;;;;;;;;;;;;5046427;28;20284;-70
2022/07/01 10:09:04;;;;;;;;;;;;;;;;;;5048401;28;20004;-69
2022/07/01 10:11:34;;;;;;;;;;;;;;;;;;5053308;28;20300;-68
2022/07/01 10:14:00;;;;;;;;;;;;;;;;;;5052447;28;20444;-68
2022/07/01 10:16:26;;;;;;;;;;;;;;;;;;5045640;28;19920;-69
2022/07/01 10:18:52;;;;;;;;;;;;;;;;;;5043554;28;20918;-68
2022/07/01 10:21:18;;;;;;;;;;;;;;;;;;5048356;28;19919;-70
2022/07/01 10:23:45;;;;;;;;;;;;;;;;;;5043090;28;19920;-69
2022/07/01 10:26:12;;;;;;;;;;;;;;;;;;5059687;28;19920;-68
2022/07/01 10:28:39;;;;;;;;;;;;;;;;;;5043370;28;19924;-70
2022/07/01 10:31:05;;;;;;;;;;;;;;;;;;5050076;28;19926;-69
2022/07/01 10:33:31;;;;;;;;;;;;;;;;;;5053119;28;19920;-69
2022/07/01 10:35:57;;;;;;;;;;;;;;;;;;5058001;28;20362;-68
2022/07/01 10:38:22;;;;;;;;;;;;;;;;;;5042004;28;19921;-68
2022/07/01 10:40:49;;;;;;;;;;;;;;;;;;5054110;28;19920;-68
2022/07/01 10:43:15;;;;;;;;;;;;;;;;;;5043470;28;19920;-68
2022/07/01 10:45:41;;;;;;;;;;;;;;;;;;5054313;28;21150;-69
2022/07/01 10:48:07;;;;;;;;;;;;;;;;;;5054419;28;20432;-69
2022/07/01 10:50:33;;;;;;;;;;;;;;;;;;5053636;28;19921;-69
2022/07/01 10:52:59;;;;;;;;;;;;;;;;;;5056614;28;22751;-68
2022/07/01 10:55:25;;;;;;;;;;;;;;;;;;5050596;28;19921;-69
2022/07/01 10:57:51;;;;;;;;;;;;;;;;;;5054577;28;20370;-69
2022/07/01 11:00:18;;;;;;;;;;;;;;;;;;5053191;28;19916;-69
2022/07/01 11:02:43;;;;;;;;;;;;;;;;;;5047508;28;19939;-70
2022/07/01 11:05:09;;;;;;;;;;;;;;;;;;5031223;28;20898;-69
2022/07/01 11:07:35;;;;;;;;;;;;;;;;;;5031321;28;19921;-68
2022/07/01 11:10:01;;;;;;;;;;;;;;;;;;5024375;28;19965;-69
2022/07/01 11:12:27;;;;;;;;;;;;;;;;;;5029978;28;19923;-68
2022/07/01 11:14:53;;;;;;;;;;;;;;;;;;5025949;28;19921;-69
2022/07/01 11:17:19;;;;;;;;;;;;;;;;;;5026967;28;19920;-68
2022/07/01 11:19:45;;;;;;;;;;;;;;;;;;5028023;28;19924;-68
2022/07/01 11:22:11;;;;;;;;;;;;;;;;;;5036636;28;19917;-69
2022/07/01 11:24:37;;;;;;;;;;;;;;;;;;5016133;28;19924;-69
2022/07/01 11:27:02;;;;;;;;;;;;;;;;;;5010358;28;19995;-69
2022/07/01 11:29:28;;;;;;;;;;;;;;;;;;5031848;28;19921;-69
2022/07/01 11:31:54;;;;;;;;;;;;;;;;;;5025350;28;20333;-68
2022/07/01 11:34:20;;;;;;;;;;;;;;;;;;5031008;28;19929;-68
2022/07/01 11:39:35;;;;;;;;;;;;;;;;;;5029959;28;19970;-69
2022/07/01 11:42:03;;;;;;;;;;;;;;;;;;5021594;28;19939;-68
2022/07/01 11:44:28;;;;;;;;;;;;;;;;;;5028272;28;20966;-68
2022/07/01 11:46:54;;;;;;;;;;;;;;;;;;5030271;28;19912;-69
2022/07/01 11:49:23;;;;;;;;;;;;;;;;;;5027639;28;19928;-69
2022/07/01 11:51:49;;;;;;;;;;;;;;;;;;5025759;28;20022;-68
2022/07/01 11:54:15;;;;;;;;;;;;;;;;;;5032953;28;20928;-68
2022/07/01 11:56:45;;;;;;;;;;;;;;;;;;5015593;28;19916;-69
2022/07/01 11:59:11;;;;;;;;;;;;;;;;;;5027673;28;19920;-69
2022/07/01 12:01:40;;;;;;;;;;;;;;;;;;5028781;28;19920;-69
2022/07/01 12:04:06;;;;;;;;;;;;;;;;;;5057924;28;19925;-69
2022/07/01 12:06:32;;;;;;;;;;;;;;;;;;5051961;28;19916;-68
2022/07/01 12:08:58;;;;;;;;;;;;;;;;;;5055533;28;19942;-69
2022/07/01 12:11:24;;;;;;;;;;;;;;;;;;5051443;28;20843;-69
2022/07/01 12:13:49;;;;;;;;;;;;;;;;;;5054445;28;19974;-69
2022/07/01 12:16:15;;;;;;;;;;;;;;;;;;5044286;28;20030;-68
2022/07/01 12:18:41;;;;;;;;;;;;;;;;;;5058759;28;19916;-69
2022/07/01 12:21:07;;;;;;;;;;;;;;;;;;5044775;28;19939;-68
2022/07/01 12:23:36;;;;;;;;;;;;;;;;;;5038766;28;21550;-68
2022/07/01 12:26:02;;;;;;;;;;;;;;;;;;5035134;28;20109;-69
2022/07/01 12:28:28;;;;;;;;;;;;;;;;;;5037340;28;20466;-68
2022/07/01 12:30:53;;;;;;;;;;;;;;;;;;5036388;28;19921;-68
2022/07/01 12:33:20;;;;;;;;;;;;;;;;;;5038096;28;19931;-69
2022/07/01 12:35:46;;;;;;;;;;;;;;;;;;5053785;28;19923;-69
2022/07/01 12:38:11;;;;;;;;;;;;;;;;;;5036736;28;20677;-70
2022/07/01 12:40:37;;;;;;;;;;;;;;;;;;5044697;28;19967;-69
2022/07/01 12:43:06;;;;;;;;;;;;;;;;;;5042673;28;20836;-69
2022/07/01 12:45:34;;;;;;;;;;;;;;;;;;5043356;28;20042;-69
2022/07/01 12:48:00;;;;;;;;;;;;;;;;;;5053379;28;19916;-69
2022/07/01 12:50:26;;;;;;;;;;;;;;;;;;5031282;28;20604;-69
2022/07/01 12:52:52;;;;;;;;;;;;;;;;;;5043758;28;20041;-69
2022/07/01 12:55:18;;;;;;;;;;;;;;;;;;5047163;28;19916;-70
2022/07/01 12:57:44;;;;;;;;;;;;;;;;;;5048271;28;19995;-69
2022/07/01 13:00:10;;;;;;;;;;;;;;;;;;5049063;28;19952;-69
2022/07/01 13:02:35;;;;;;;;;;;;;;;;;;5041410;28;19924;-69
2022/07/01 13:05:01;;;;;;;;;;;;;;;;;;5037999;28;19912;-68
2022/07/01 13:07:27;;;;;;;;;;;;;;;;;;5043804;28;19920;-66
2022/07/01 13:09:53;;;;;;;;;;;;;;;;;;5053226;28;19912;-65
2022/07/01 13:12:19;;;;;;;;;;;;;;;;;;5047453;28;20346;-65
2022/07/01 13:14:45;;;;;;;;;;;;;;;;;;5048801;28;20002;-65
2022/07/01 13:17:11;;;;;;;;;;;;;;;;;;5038186;28;20370;-65
2022/07/01 13:19:36;;;;;;;;;;;;;;;;;;5041715;28;19927;-66
2022/07/01 13:22:02;;;;;;;;;;;;;;;;;;5036732;28;19921;-66
2022/07/01 13:24:28;;;;;;;;;;;;;;;;;;5044498;28;21346;-64
2022/07/01 13:26:54;;;;;;;;;;;;;;;;;;5045803;28;19947;-65
2022/07/01 13:29:20;;;;;;;;;;;;;;;;;;5042706;28;19927;-65
2022/07/01 13:31:46;;;;;;;;;;;;;;;;;;5041614;28;19921;-65
2022/07/01 13:34:12;;;;;;;;;;;;;;;;;;5029210;28;19931;-64
2022/07/01 13:36:38;;;;;;;;;;;;;;;;;;5048935;28;20289;-65
2022/07/01 13:39:03;;;;;;;;;;;;;;;;;;5037216;28;19926;-64
2022/07/01 13:41:29;;;;;;;;;;;;;;;;;;5046108;28;19916;-65
2022/07/01 13:43:55;;;;;;;;;;;;;;;;;;5049136;28;19975;-65
2022/07/01 13:46:21;;;;;;;;;;;;;;;;;;5047243;28;19916;-64
2022/07/01 13:48:47;;;;;;;;;;;;;;;;;;5047986;28;20904;-64
2022/07/01 13:51:13;;;;;;;;;;;;;;;;;;5053854;28;19932;-65
2022/07/01 13:53:39;;;;;;;;;;;;;;;;;;5045296;28;19920;-65
2022/07/01 13:56:04;;;;;;;;;;;;;;;;;;5041015;28;22634;-65
2022/07/01 13:58:30;;;;;;;;;;;;;;;;;;5040508;28;19908;-64
2022/07/01 14:00:56;;;;;;;;;;;;;;;;;;5047378;28;19927;-65
2022/07/01 14:03:22;;;;;;;;;;;;;;;;;;5033399;28;19971;-64
2022/07/01 14:05:48;;;;;;;;;;;;;;;;;;5046737;28;19953;-65
2022/07/01 14:08:14;;;;;;;;;;;;;;;;;;5045427;28;20486;-65
2022/07/01 14:10:40;;;;;;;;;;;;;;;;;;5048705;28;19939;-65
2022/07/01 14:13:06;;;;;;;;;;;;;;;;;;5046142;28;20231;-64
2022/07/01 14:15:32;;;;;;;;;;;;;;;;;;5039882;28;19921;-64
2022/07/01 14:17:57;;;;;;;;;;;;;;;;;;5050534;28;19920;-65
2022/07/01 14:20:23;;;;;;;;;;;;;;;;;;5037943;28;19920;-64
2022/07/01 14:22:49;;;;;;;;;;;;;;;;;;5042301;28;20037;-64
2022/07/01 14:25:15;;;;;;;;;;;;;;;;;;5045108;28;20008;-65
2022/07/01 14:27:41;;;;;;;;;;;;;;;;;;5026077;28;19943;-64
2022/07/01 14:30:07;;;;;;;;;;;;;;;;;;5031447;28;19920;-64
2022/07/01 14:32:33;;;;;;;;;;;;;;;;;;5034025;28;19920;-64
2022/07/01 14:34:59;;;;;;;;;;;;;;;;;;5038905;28;19921;-65
2022/07/01 14:37:25;;;;;;;;;;;;;;;;;;5038621;28;19920;-65
2022/07/01 14:39:55;;;;;;;;;;;;;;;;;;5039850;28;19901;-65
2022/07/01 14:42:21;;;;;;;;;;;;;;;;;;5045948;28;19999;-65
2022/07/01 14:44:49;;;;;;;;;;;;;;;;;;5039153;28;20353;-64
2022/07/01 14:47:15;;;;;;;;;;;;;;;;;;5042878;28;19916;-66
2022/07/01 14:49:41;;;;;;;;;;;;;;;;;;5040821;28;19921;-65
2022/07/01 14:52:07;;;;;;;;;;;;;;;;;;5046812;28;19920;-65
2022/07/01 14:54:33;;;;;;;;;;;;;;;;;;5043521;28;19932;-65
2022/07/01 14:56:59;;;;;;;;;;;;;;;;;;5045702;28;19947;-65
2022/07/01 14:59:25;;;;;;;;;;;;;;;;;;5041500;28;20432;-65
2022/07/01 15:01:51;;;;;;;;;;;;;;;;;;5041254;28;20007;-65
2022/07/01 15:04:17;;;;;;;;;;;;;;;;;;5041583;28;19963;-65
2022/07/01 15:06:43;;;;;;;;;;;;;;;;;;5048822;28;20463;-65
2022/07/01 15:09:08;;;;;;;;;;;;;;;;;;5047901;28;19924;-65
2022/07/01 15:11:34;;;;;;;;;;;;;;;;;;5048420;28;19956;-64
2022/07/01 15:14:00;;;;;;;;;;;;;;;;;;5048350;28;19959;-65
2022/07/01 15:16:26;;;;;;;;;;;;;;;;;;5052169;28;19920;-65
2022/07/01 15:18:52;;;;;;;;;;;;;;;;;;5050861;28;19920;-65
2022/07/01 15:21:19;;;;;;;;;;;;;;;;;;5045765;28;20158;-65
2022/07/01 15:23:44;;;;;;;;;;;;;;;;;;5050475;28;19916;-64
2022/07/01 15:26:10;;;;;;;;;;;;;;;;;;5045445;28;21512;-65
2022/07/01 15:28:36;;;;;;;;;;;;;;;;;;5047024;28;19972;-65
2022/07/01 15:31:02;;;;;;;;;;;;;;;;;;5046126;28;20003;-65
2022/07/01 15:33:28;;;;;;;;;;;;;;;;;;5050933;28;19916;-65
2022/07/01 15:35:54;;;;;;;;;;;;;;;;;;5045417;28;19994;-66
2022/07/01 15:38:20;;;;;;;;;;;;;;;;;;5047244;28;19989;-65
2022/07/01 15:40:46;;;;;;;;;;;;;;;;;;5055399;28;19987;-65
2022/07/01 15:43:12;;;;;;;;;;;;;;;;;;5051587;28;19915;-66
2022/07/01 15:45:38;;;;;;;;;;;;;;;;;;5043905;28;19970;-66
2022/07/01 15:48:09;;;;;;;;;;;;;;;;;;5048985;28;19926;-66
2022/07/01 15:50:34;;;;;;;;;;;;;;;;;;5051381;28;19955;-66
2022/07/01 15:53:00;;;;;;;;;;;;;;;;;;5048087;28;26582;-66
2022/07/01 15:55:26;;;;;;;;;;;;;;;;;;5047695;28;19933;-66
2022/07/01 15:57:53;;;;;;;;;;;;;;;;;;5049579;28;19955;-66
2022/07/01 16:00:19;;;;;;;;;;;;;;;;;;5051701;28;19920;-66
2022/07/01 16:02:45;;;;;;;;;;;;;;;;;;5050086;28;19934;-66